createdAt,value
2022-08-16T00:00:04.451Z,0.00
2022-08-16T00:00:57.276Z,0.00
2022-08-16T00:01:56.364Z,0.00
2022-08-16T00:02:56.257Z,0.00
2022-08-16T00:03:56.283Z,0.00
2022-08-16T00:04:59.634Z,0.00
2022-08-16T00:05:57.511Z,0.00
2022-08-16T00:06:56.229Z,0.00
2022-08-16T00:07:57.004Z,0.00
2022-08-16T00:08:56.209Z,0.00
2022-08-16T00:09:56.186Z,0.00
2022-08-16T00:10:56.167Z,0.00
2022-08-16T00:11:56.182Z,0.00
2022-08-16T00:12:56.162Z,0.00
2022-08-16T00:13:56.130Z,0.00
2022-08-16T00:14:56.827Z,0.00
2022-08-16T00:15:56.110Z,0.00
2022-08-16T00:17:05.423Z,0.00
2022-08-16T00:17:57.512Z,0.00
2022-08-16T00:18:56.071Z,0.00
2022-08-16T00:19:56.074Z,0.00
2022-08-16T00:20:56.052Z,0.00
2022-08-16T00:22:01.675Z,0.00
2022-08-16T00:22:57.054Z,0.00
2022-08-16T00:23:56.024Z,0.00
2022-08-16T00:24:56.012Z,0.00
2022-08-16T00:26:36.161Z,0.00
2022-08-16T00:26:56.984Z,0.00
2022-08-16T00:27:55.975Z,0.00
2022-08-16T00:28:55.993Z,0.00
2022-08-16T00:30:09.009Z,0.00
2022-08-16T00:30:59.269Z,0.00
2022-08-16T00:32:01.372Z,0.00
2022-08-16T00:32:57.076Z,0.00
2022-08-16T00:33:55.915Z,0.00
2022-08-16T00:34:55.915Z,0.00
2022-08-16T00:35:55.893Z,0.00
2022-08-16T00:36:56.046Z,0.00
2022-08-16T00:37:58.970Z,0.00
2022-08-16T00:38:56.182Z,0.00
2022-08-16T00:39:56.917Z,0.00
2022-08-16T00:40:55.857Z,0.00
2022-08-16T00:41:55.827Z,0.00
2022-08-16T00:42:55.807Z,0.00
2022-08-16T00:43:55.807Z,0.00
2022-08-16T00:44:55.795Z,0.00
2022-08-16T00:46:00.674Z,0.00
2022-08-16T00:47:02.467Z,0.00
2022-08-16T00:47:56.757Z,0.00
2022-08-16T00:48:55.747Z,0.00
2022-08-16T00:49:56.725Z,0.00
2022-08-16T00:50:55.728Z,0.00
2022-08-16T00:51:55.769Z,0.00
2022-08-16T00:52:55.940Z,0.00
2022-08-16T00:53:55.697Z,0.00
2022-08-16T00:54:55.680Z,0.00
2022-08-16T00:55:55.669Z,0.00
2022-08-16T00:56:58.301Z,0.00
2022-08-16T00:58:00.001Z,0.00
2022-08-16T00:58:56.630Z,0.00
2022-08-16T00:59:59.469Z,0.00
2022-08-16T01:00:55.645Z,0.00
2022-08-16T01:01:55.602Z,0.00
2022-08-16T01:02:55.613Z,0.00
2022-08-16T01:03:55.582Z,0.00
2022-08-16T01:05:11.221Z,0.00
2022-08-16T01:05:56.562Z,0.00
2022-08-16T01:07:01.820Z,0.00
2022-08-16T01:07:56.533Z,0.00
2022-08-16T01:08:55.530Z,0.00
2022-08-16T01:09:55.522Z,0.00
2022-08-16T01:10:55.506Z,0.00
2022-08-16T01:11:55.533Z,0.00
2022-08-16T01:12:55.502Z,0.00
2022-08-16T01:13:55.504Z,0.00
2022-08-16T01:14:55.454Z,0.00
2022-08-16T01:15:55.446Z,0.00
2022-08-16T01:16:55.434Z,0.00
2022-08-16T01:17:55.916Z,0.00
2022-08-16T01:18:55.415Z,0.00
2022-08-16T01:19:56.967Z,0.00
2022-08-16T01:20:55.386Z,0.00
2022-08-16T01:21:55.385Z,0.00
2022-08-16T01:22:55.836Z,0.00
2022-08-16T01:24:00.968Z,0.00
2022-08-16T01:24:56.348Z,0.00
2022-08-16T01:25:59.740Z,0.00
2022-08-16T01:26:55.326Z,0.00
2022-08-16T01:27:56.337Z,0.00
2022-08-16T01:28:55.305Z,0.00
2022-08-16T01:29:58.474Z,0.00
2022-08-16T01:30:55.309Z,0.00
2022-08-16T01:31:55.278Z,0.00
2022-08-16T01:33:02.674Z,0.00
2022-08-16T01:33:56.248Z,0.00
2022-08-16T01:34:56.984Z,0.00
2022-08-16T01:35:56.365Z,0.00
2022-08-16T01:36:58.294Z,0.00
2022-08-16T01:37:55.217Z,0.00
2022-08-16T01:38:57.111Z,0.00
2022-08-16T01:39:55.209Z,0.00
2022-08-16T01:40:55.174Z,0.00
2022-08-16T01:41:55.160Z,0.00
2022-08-16T01:42:55.471Z,0.00
2022-08-16T01:43:55.140Z,0.00
2022-08-16T01:44:55.130Z,0.00
2022-08-16T01:45:57.652Z,0.00
2022-08-16T01:46:55.108Z,0.00
2022-08-16T01:47:55.091Z,0.00
2022-08-16T01:48:55.105Z,0.00
2022-08-16T01:51:05.112Z,0.00
2022-08-16T01:51:08.833Z,0.00
2022-08-16T01:51:56.052Z,0.00
2022-08-16T01:52:55.034Z,0.00
2022-08-16T01:53:55.857Z,0.00
2022-08-16T01:54:55.012Z,0.00
2022-08-16T01:55:55.013Z,0.00
2022-08-16T01:56:55.013Z,0.00
2022-08-16T01:57:56.228Z,0.00
2022-08-16T01:58:55.194Z,0.00
2022-08-16T01:59:55.044Z,0.00
2022-08-16T02:00:55.083Z,0.00
2022-08-16T02:01:59.896Z,0.00
2022-08-16T02:02:55.925Z,0.00
2022-08-16T02:03:58.172Z,0.00
2022-08-16T02:04:55.072Z,0.00
2022-08-16T02:05:54.897Z,0.00
2022-08-16T02:06:54.906Z,0.00
2022-08-16T02:07:54.875Z,0.00
2022-08-16T02:08:54.856Z,0.00
2022-08-16T02:09:58.873Z,0.00
2022-08-16T02:10:54.837Z,0.00
2022-08-16T02:11:54.846Z,0.00
2022-08-16T02:12:55.933Z,0.00
2022-08-16T02:13:55.807Z,0.00
2022-08-16T02:14:54.790Z,0.00
2022-08-16T02:15:54.786Z,0.00
2022-08-16T02:16:54.771Z,0.00
2022-08-16T02:17:54.822Z,0.00
2022-08-16T02:18:54.748Z,0.00
2022-08-16T02:19:59.076Z,0.00
2022-08-16T02:20:55.728Z,0.00
2022-08-16T02:22:09.003Z,0.00
2022-08-16T02:22:55.731Z,0.00
2022-08-16T02:23:55.714Z,0.00
2022-08-16T02:24:54.689Z,0.00
2022-08-16T02:25:54.868Z,0.00
2022-08-16T02:26:54.663Z,0.00
2022-08-16T02:27:54.652Z,0.00
2022-08-16T02:28:54.660Z,0.00
2022-08-16T02:30:05.061Z,0.00
2022-08-16T02:30:55.623Z,0.00
2022-08-16T02:32:03.949Z,0.00
2022-08-16T02:32:55.591Z,0.00
2022-08-16T02:33:54.622Z,0.00
2022-08-16T02:34:56.478Z,0.00
2022-08-16T02:35:58.116Z,0.00
2022-08-16T02:36:54.553Z,0.00
2022-08-16T02:37:56.151Z,0.00
2022-08-16T02:38:54.553Z,0.00
2022-08-16T02:39:54.564Z,0.00
2022-08-16T02:40:54.902Z,0.00
2022-08-16T02:41:54.519Z,0.00
2022-08-16T02:42:54.484Z,0.00
2022-08-16T02:43:54.485Z,0.00
2022-08-16T02:44:54.494Z,0.00
2022-08-16T02:45:54.461Z,0.00
2022-08-16T02:46:54.445Z,0.00
2022-08-16T02:48:01.258Z,0.00
2022-08-16T02:48:55.446Z,0.00
2022-08-16T02:50:52.133Z,0.00
2022-08-16T02:51:10.380Z,0.00
2022-08-16T02:51:55.377Z,0.00
2022-08-16T02:52:54.377Z,0.00
2022-08-16T02:53:54.367Z,0.00
2022-08-16T02:54:55.482Z,0.00
2022-08-16T02:55:54.336Z,0.00
2022-08-16T02:56:54.328Z,0.00
2022-08-16T02:57:54.767Z,0.00
2022-08-16T02:58:54.308Z,0.00
2022-08-16T02:59:54.317Z,0.00
2022-08-16T03:00:55.966Z,0.00
2022-08-16T03:01:55.378Z,0.00
2022-08-16T03:02:56.198Z,0.00
2022-08-16T03:04:39.566Z,0.00
2022-08-16T03:04:55.240Z,0.00
2022-08-16T03:05:54.229Z,0.00
2022-08-16T03:06:56.552Z,0.00
2022-08-16T03:07:54.229Z,0.00
2022-08-16T03:08:54.201Z,0.00
2022-08-16T03:09:54.210Z,0.00
2022-08-16T03:10:54.178Z,0.00
2022-08-16T03:11:55.164Z,0.00
2022-08-16T03:12:55.933Z,0.00
2022-08-16T03:13:56.521Z,0.00
2022-08-16T03:14:54.184Z,0.00
2022-08-16T03:15:54.121Z,0.00
2022-08-16T03:16:59.746Z,0.00
2022-08-16T03:17:55.092Z,0.00
2022-08-16T03:18:54.090Z,0.00
2022-08-16T03:19:59.966Z,0.00
2022-08-16T03:20:55.773Z,0.00
2022-08-16T03:21:54.053Z,0.00
2022-08-16T03:22:54.045Z,0.00
2022-08-16T03:23:54.043Z,0.00
2022-08-16T03:24:54.024Z,0.00
2022-08-16T03:25:54.005Z,0.00
2022-08-16T03:26:54.019Z,0.00
2022-08-16T03:27:53.984Z,0.00
2022-08-16T03:28:53.977Z,0.00
2022-08-16T03:29:54.781Z,0.00
2022-08-16T03:30:53.975Z,0.00
2022-08-16T03:31:53.946Z,0.00
2022-08-16T03:32:53.962Z,0.00
2022-08-16T03:33:53.934Z,0.00
2022-08-16T03:34:53.909Z,0.00
2022-08-16T03:35:57.001Z,0.00
2022-08-16T03:36:53.888Z,0.00
2022-08-16T03:38:02.739Z,0.00
2022-08-16T03:38:54.871Z,0.00
2022-08-16T03:39:56.442Z,0.00
2022-08-16T03:40:54.870Z,0.00
2022-08-16T03:41:59.555Z,0.00
2022-08-16T03:43:00.504Z,0.00
2022-08-16T03:43:54.814Z,0.00
2022-08-16T03:45:03.546Z,4.00
2022-08-16T03:45:54.810Z,4.00
2022-08-16T03:46:53.779Z,0.00
2022-08-16T03:47:58.616Z,4.00
2022-08-16T03:48:54.759Z,4.00
2022-08-16T03:49:53.752Z,4.00
2022-08-16T03:51:00.145Z,4.00
2022-08-16T03:51:54.746Z,8.00
2022-08-16T03:52:59.638Z,8.00
2022-08-16T03:54:00.666Z,12.00
2022-08-16T03:54:58.246Z,16.00
2022-08-16T03:55:54.671Z,12.00
2022-08-16T03:56:56.906Z,16.00
2022-08-16T03:57:53.652Z,20.00
2022-08-16T03:58:53.662Z,20.00
2022-08-16T03:59:53.642Z,24.00
2022-08-16T04:00:58.994Z,28.00
2022-08-16T04:01:54.634Z,32.00
2022-08-16T04:02:53.593Z,36.00
2022-08-16T04:03:55.195Z,44.00
2022-08-16T04:04:53.576Z,44.00
2022-08-16T04:05:54.078Z,56.00
2022-08-16T04:06:53.556Z,60.00
2022-08-16T04:07:53.566Z,68.00
2022-08-16T04:08:53.533Z,72.00
2022-08-16T04:09:53.531Z,80.00
2022-08-16T04:10:53.523Z,92.00
2022-08-16T04:11:53.506Z,100.00
2022-08-16T04:12:59.463Z,112.00
2022-08-16T04:14:00.959Z,124.00
2022-08-16T04:14:54.490Z,140.00
2022-08-16T04:15:53.459Z,152.00
2022-08-16T04:16:53.443Z,164.00
2022-08-16T04:17:53.440Z,176.00
2022-08-16T04:18:53.422Z,192.00
2022-08-16T04:19:54.935Z,212.00
2022-08-16T04:20:53.406Z,228.00
2022-08-16T04:21:53.416Z,252.00
2022-08-16T04:22:53.396Z,280.00
2022-08-16T04:23:54.853Z,300.00
2022-08-16T04:25:01.133Z,324.00
2022-08-16T04:25:53.351Z,344.00
2022-08-16T04:26:53.335Z,364.00
2022-08-16T04:27:55.640Z,384.00
2022-08-16T04:29:14.630Z,404.00
2022-08-16T04:29:54.305Z,428.00
2022-08-16T04:30:54.298Z,448.00
2022-08-16T04:31:56.901Z,472.00
2022-08-16T04:32:53.286Z,492.00
2022-08-16T04:33:53.269Z,516.00
2022-08-16T04:34:53.250Z,548.00
2022-08-16T04:35:53.234Z,580.00
2022-08-16T04:36:53.224Z,608.00
2022-08-16T04:37:53.805Z,636.00
2022-08-16T04:38:53.195Z,672.00
2022-08-16T04:39:57.075Z,696.00
2022-08-16T04:40:54.341Z,716.00
2022-08-16T04:41:56.795Z,732.00
2022-08-16T04:42:53.156Z,752.00
2022-08-16T04:43:53.174Z,772.00
2022-08-16T04:44:55.337Z,800.00
2022-08-16T04:46:00.148Z,832.00
2022-08-16T04:47:01.115Z,864.00
2022-08-16T04:47:56.143Z,900.00
2022-08-16T04:48:53.112Z,936.00
2022-08-16T04:49:53.077Z,968.00
2022-08-16T04:50:53.068Z,1000.00
2022-08-16T04:51:53.804Z,1032.00
2022-08-16T04:52:53.056Z,1068.00
2022-08-16T04:53:53.057Z,1108.00
2022-08-16T04:54:53.028Z,1144.00
2022-08-16T04:55:53.594Z,1172.00
2022-08-16T04:56:52.997Z,1200.00
2022-08-16T04:57:53.801Z,1236.00
2022-08-16T04:58:52.997Z,1264.00
2022-08-16T04:59:54.233Z,1284.00
2022-08-16T05:00:52.957Z,1264.00
2022-08-16T05:01:58.121Z,1212.00
2022-08-16T05:02:56.219Z,1192.00
2022-08-16T05:04:00.876Z,1196.00
2022-08-16T05:04:53.930Z,1204.00
2022-08-16T05:05:59.229Z,1220.00
2022-08-16T05:06:53.882Z,1240.00
2022-08-16T05:07:59.544Z,1260.00
2022-08-16T05:08:56.427Z,1284.00
2022-08-16T05:09:52.882Z,1308.00
2022-08-16T05:10:52.842Z,1328.00
2022-08-16T05:11:57.384Z,1360.00
2022-08-16T05:12:52.823Z,1380.00
2022-08-16T05:13:52.813Z,1404.00
2022-08-16T05:15:01.804Z,1428.00
2022-08-16T05:15:53.812Z,1448.00
2022-08-16T05:16:52.794Z,1468.00
2022-08-16T05:17:58.692Z,1484.00
2022-08-16T05:18:53.753Z,1504.00
2022-08-16T05:19:57.982Z,1536.00
2022-08-16T05:21:01.856Z,1572.00
2022-08-16T05:21:53.725Z,1608.00
2022-08-16T05:22:53.075Z,1652.00
2022-08-16T05:23:58.690Z,1692.00
2022-08-16T05:24:55.319Z,1724.00
2022-08-16T05:25:52.705Z,1756.00
2022-08-16T05:26:52.663Z,1788.00
2022-08-16T05:27:52.664Z,1812.00
2022-08-16T05:28:55.513Z,1844.00
2022-08-16T05:29:59.972Z,1884.00
2022-08-16T05:30:53.627Z,1940.00
2022-08-16T05:31:53.275Z,2008.00
2022-08-16T05:32:52.882Z,2076.00
2022-08-16T05:33:53.644Z,2132.00
2022-08-16T05:34:52.606Z,2144.00
2022-08-16T05:35:54.730Z,2128.00
2022-08-16T05:36:52.556Z,2144.00
2022-08-16T05:37:52.545Z,2164.00
2022-08-16T05:38:52.528Z,2236.00
2022-08-16T05:39:55.359Z,2308.00
2022-08-16T05:40:57.229Z,2404.00
2022-08-16T05:41:53.500Z,2480.00
2022-08-16T05:42:52.628Z,2564.00
2022-08-16T05:43:52.478Z,2664.00
2022-08-16T05:44:53.499Z,2784.00
2022-08-16T05:45:52.459Z,2908.00
2022-08-16T05:46:52.450Z,3028.00
2022-08-16T05:47:59.502Z,3128.00
2022-08-16T05:48:54.917Z,3172.00
2022-08-16T05:49:52.411Z,3188.00
2022-08-16T05:50:53.197Z,3204.00
2022-08-16T05:51:52.390Z,3136.00
2022-08-16T05:52:52.401Z,3064.00
2022-08-16T05:53:52.372Z,3020.00
2022-08-16T05:55:01.536Z,2944.00
2022-08-16T05:55:53.371Z,2856.00
2022-08-16T05:56:52.332Z,2764.00
2022-08-16T05:57:52.414Z,2740.00
2022-08-16T05:58:52.310Z,2756.00
2022-08-16T06:00:00.011Z,2780.00
2022-08-16T06:00:53.315Z,2768.00
2022-08-16T06:01:52.357Z,2768.00
2022-08-16T06:02:52.266Z,2756.00
2022-08-16T06:03:52.253Z,2760.00
2022-08-16T06:04:52.246Z,2768.00
2022-08-16T06:05:52.255Z,2752.00
2022-08-16T06:06:56.215Z,2696.00
2022-08-16T06:07:58.431Z,2612.00
2022-08-16T06:08:53.193Z,2508.00
2022-08-16T06:09:52.602Z,2404.00
2022-08-16T06:11:02.816Z,2312.00
2022-08-16T06:11:53.164Z,2260.00
2022-08-16T06:12:55.648Z,2252.00
2022-08-16T06:13:52.147Z,2248.00
2022-08-16T06:14:52.135Z,2216.00
2022-08-16T06:15:52.147Z,2160.00
2022-08-16T06:16:52.104Z,2084.00
2022-08-16T06:17:52.128Z,2004.00
2022-08-16T06:18:52.115Z,1964.00
2022-08-16T06:19:52.088Z,1960.00
2022-08-16T06:20:55.800Z,1972.00
2022-08-16T06:21:54.826Z,1988.00
2022-08-16T06:22:57.637Z,2008.00
2022-08-16T06:23:53.985Z,2028.00
2022-08-16T06:24:53.642Z,2056.00
2022-08-16T06:25:52.196Z,2088.00
2022-08-16T06:26:58.043Z,2128.00
2022-08-16T06:27:57.085Z,2180.00
2022-08-16T06:28:52.494Z,2252.00
2022-08-16T06:29:51.970Z,2276.00
2022-08-16T06:30:51.959Z,2284.00
2022-08-16T06:31:51.949Z,2308.00
2022-08-16T06:32:52.255Z,2336.00
2022-08-16T06:33:51.948Z,2368.00
2022-08-16T06:34:57.499Z,2420.00
2022-08-16T06:35:55.335Z,2416.00
2022-08-16T06:36:59.274Z,2448.00
2022-08-16T06:37:52.879Z,2476.00
2022-08-16T06:38:56.109Z,2516.00
2022-08-16T06:39:52.893Z,2556.00
2022-08-16T06:40:51.841Z,2676.00
2022-08-16T06:41:51.848Z,2688.00
2022-08-16T06:42:56.820Z,2700.00
2022-08-16T06:43:52.841Z,2712.00
2022-08-16T06:44:51.801Z,2728.00
2022-08-16T06:45:51.801Z,2744.00
2022-08-16T06:46:51.777Z,2756.00
2022-08-16T06:47:53.450Z,2776.00
2022-08-16T06:48:51.898Z,2788.00
2022-08-16T06:49:52.931Z,2796.00
2022-08-16T06:50:51.734Z,2808.00
2022-08-16T06:51:52.630Z,2816.00
2022-08-16T06:53:00.077Z,2824.00
2022-08-16T06:53:52.896Z,2832.00
2022-08-16T06:54:51.714Z,2856.00
2022-08-16T06:55:53.589Z,2864.00
2022-08-16T06:56:52.502Z,2876.00
2022-08-16T06:57:51.657Z,2904.00
2022-08-16T06:58:51.647Z,2920.00
2022-08-16T06:59:58.362Z,2944.00
2022-08-16T07:00:52.688Z,2960.00
2022-08-16T07:01:54.957Z,2976.00
2022-08-16T07:02:52.220Z,2984.00
2022-08-16T07:03:55.846Z,2992.00
2022-08-16T07:04:52.682Z,3000.00
2022-08-16T07:05:51.566Z,3016.00
2022-08-16T07:06:51.557Z,3028.00
2022-08-16T07:07:51.548Z,3048.00
2022-08-16T07:08:51.537Z,3056.00
2022-08-16T07:09:51.549Z,3072.00
2022-08-16T07:10:51.516Z,3080.00
2022-08-16T07:11:52.304Z,3092.00
2022-08-16T07:13:04.162Z,3104.00
2022-08-16T07:14:03.999Z,3116.00
2022-08-16T07:14:52.490Z,3128.00
2022-08-16T07:15:51.481Z,3144.00
2022-08-16T07:16:51.452Z,3160.00
2022-08-16T07:17:51.442Z,3172.00
2022-08-16T07:18:59.113Z,3184.00
2022-08-16T07:20:03.991Z,3188.00
2022-08-16T07:20:52.431Z,3192.00
2022-08-16T07:21:59.337Z,3196.00
2022-08-16T07:22:58.743Z,3200.00
2022-08-16T07:23:58.020Z,3208.00
2022-08-16T07:24:52.366Z,3212.00
2022-08-16T07:25:51.343Z,3228.00
2022-08-16T07:26:51.356Z,3240.00
2022-08-16T07:27:51.332Z,3264.00
2022-08-16T07:28:51.314Z,3292.00
2022-08-16T07:29:51.303Z,3312.00
2022-08-16T07:30:51.318Z,3332.00
2022-08-16T07:31:51.283Z,3352.00
2022-08-16T07:32:51.650Z,3364.00
2022-08-16T07:33:54.905Z,3368.00
2022-08-16T07:34:51.253Z,3376.00
2022-08-16T07:35:51.266Z,3384.00
2022-08-16T07:36:58.131Z,3392.00
2022-08-16T07:37:52.237Z,3396.00
2022-08-16T07:38:51.207Z,3388.00
2022-08-16T07:39:51.209Z,3384.00
2022-08-16T07:41:10.169Z,3388.00
2022-08-16T07:41:52.166Z,3400.00
2022-08-16T07:42:51.184Z,3412.00
2022-08-16T07:43:51.213Z,3428.00
2022-08-16T07:44:51.136Z,3448.00
2022-08-16T07:45:52.901Z,3464.00
2022-08-16T07:46:55.625Z,3476.00
2022-08-16T07:47:52.140Z,3488.00
2022-08-16T07:48:51.097Z,3496.00
2022-08-16T07:49:57.831Z,3508.00
2022-08-16T07:50:58.403Z,3520.00
2022-08-16T07:51:55.935Z,3536.00
2022-08-16T07:52:51.191Z,3548.00
2022-08-16T07:54:02.682Z,3564.00
2022-08-16T07:54:53.401Z,3568.00
2022-08-16T07:55:51.021Z,3580.00
2022-08-16T07:56:51.030Z,3592.00
2022-08-16T07:58:00.985Z,3600.00
2022-08-16T07:58:55.493Z,3616.00
2022-08-16T07:59:52.094Z,3632.00
2022-08-16T08:00:51.042Z,3648.00
2022-08-16T08:01:53.113Z,3656.00
2022-08-16T08:02:52.203Z,3664.00
2022-08-16T08:03:50.931Z,3672.00
2022-08-16T08:04:50.925Z,3680.00
2022-08-16T08:05:50.904Z,3684.00
2022-08-16T08:06:51.264Z,3692.00
2022-08-16T08:07:51.462Z,3696.00
2022-08-16T08:08:52.777Z,3708.00
2022-08-16T08:09:51.864Z,3720.00
2022-08-16T08:10:50.851Z,3732.00
2022-08-16T08:12:01.025Z,3748.00
2022-08-16T08:12:52.128Z,3756.00
2022-08-16T08:13:50.945Z,3764.00
2022-08-16T08:14:50.807Z,3768.00
2022-08-16T08:15:52.503Z,3780.00
2022-08-16T08:16:50.808Z,3796.00
2022-08-16T08:17:50.773Z,3804.00
2022-08-16T08:18:56.112Z,3824.00
2022-08-16T08:19:53.264Z,3840.00
2022-08-16T08:20:59.465Z,3852.00
2022-08-16T08:22:01.380Z,3860.00
2022-08-16T08:22:51.718Z,3868.00
2022-08-16T08:23:50.709Z,3876.00
2022-08-16T08:24:50.699Z,3896.00
2022-08-16T08:25:53.723Z,3908.00
2022-08-16T08:26:50.787Z,3928.00
2022-08-16T08:27:50.678Z,3936.00
2022-08-16T08:28:51.663Z,3940.00
2022-08-16T08:30:09.082Z,3952.00
2022-08-16T08:31:01.365Z,3976.00
2022-08-16T08:31:51.640Z,4004.00
2022-08-16T08:33:00.091Z,4028.00
2022-08-16T08:33:51.836Z,4048.00
2022-08-16T08:34:50.590Z,4064.00
2022-08-16T08:35:50.570Z,4092.00
2022-08-16T08:36:54.359Z,4112.00
2022-08-16T08:37:55.375Z,4128.00
2022-08-16T08:38:51.540Z,4140.00
2022-08-16T08:39:55.343Z,4160.00
2022-08-16T08:40:51.557Z,4176.00
2022-08-16T08:41:51.245Z,4196.00
2022-08-16T08:42:50.501Z,4228.00
2022-08-16T08:43:51.543Z,4264.00
2022-08-16T08:44:50.473Z,4316.00
2022-08-16T08:45:52.788Z,4344.00
2022-08-16T08:47:00.703Z,4372.00
2022-08-16T08:47:54.322Z,4404.00
2022-08-16T08:48:59.607Z,4456.00
2022-08-16T08:49:55.867Z,4488.00
2022-08-16T08:50:51.414Z,4508.00
2022-08-16T08:51:50.395Z,4532.00
2022-08-16T08:52:50.525Z,4540.00
2022-08-16T08:53:58.021Z,4552.00
2022-08-16T08:54:51.385Z,4600.00
2022-08-16T08:55:59.176Z,4640.00
2022-08-16T08:56:51.336Z,4656.00
2022-08-16T08:57:50.327Z,4692.00
2022-08-16T08:58:54.083Z,4732.00
2022-08-16T08:59:51.328Z,4748.00
2022-08-16T09:00:51.638Z,4764.00
2022-08-16T09:01:56.204Z,4784.00
2022-08-16T09:02:52.267Z,4804.00
2022-08-16T09:03:50.310Z,4836.00
2022-08-16T09:04:50.277Z,4848.00
2022-08-16T09:05:51.647Z,4856.00
2022-08-16T09:06:50.256Z,4872.00
2022-08-16T09:08:00.452Z,4888.00
2022-08-16T09:08:51.209Z,4924.00
2022-08-16T09:09:50.211Z,4968.00
2022-08-16T09:11:02.023Z,5028.00
2022-08-16T09:11:53.506Z,5076.00
2022-08-16T09:12:50.470Z,5096.00
2022-08-16T09:13:50.151Z,5148.00
2022-08-16T09:14:51.058Z,5188.00
2022-08-16T09:15:50.122Z,5204.00
2022-08-16T09:17:01.295Z,5192.00
2022-08-16T09:17:53.530Z,5228.00
2022-08-16T09:18:54.902Z,5276.00
2022-08-16T09:19:55.177Z,5284.00
2022-08-16T09:20:58.665Z,5288.00
2022-08-16T09:21:56.029Z,5256.00
2022-08-16T09:22:51.442Z,5244.00
2022-08-16T09:23:50.035Z,5260.00
2022-08-16T09:24:53.302Z,5280.00
2022-08-16T09:25:50.036Z,5320.00
2022-08-16T09:26:52.561Z,5356.00
2022-08-16T09:27:57.913Z,5388.00
2022-08-16T09:29:15.120Z,5448.00
2022-08-16T09:29:59.982Z,5496.00
2022-08-16T09:30:50.986Z,5524.00
2022-08-16T09:31:53.455Z,5556.00
2022-08-16T09:32:50.107Z,5596.00
2022-08-16T09:33:52.101Z,5644.00
2022-08-16T09:34:49.924Z,5712.00
2022-08-16T09:35:53.887Z,5816.00
2022-08-16T09:36:49.908Z,5936.00
2022-08-16T09:38:00.815Z,6024.00
2022-08-16T09:38:50.940Z,6072.00
2022-08-16T09:39:50.540Z,6144.00
2022-08-16T09:40:49.877Z,6152.00
2022-08-16T09:41:53.855Z,6136.00
2022-08-16T09:42:56.510Z,6172.00
2022-08-16T09:43:59.283Z,6252.00
2022-08-16T09:45:09.324Z,6340.00
2022-08-16T09:45:50.811Z,6440.00
2022-08-16T09:46:50.095Z,6464.00
2022-08-16T09:47:56.922Z,6448.00
2022-08-16T09:48:51.678Z,6508.00
2022-08-16T09:49:51.231Z,6572.00
2022-08-16T09:50:49.759Z,6596.00
2022-08-16T09:51:49.753Z,6660.00
2022-08-16T09:52:49.928Z,6724.00
2022-08-16T09:53:53.958Z,6804.00
2022-08-16T09:54:50.740Z,6908.00
2022-08-16T09:55:50.107Z,6976.00
2022-08-16T09:56:52.501Z,6996.00
2022-08-16T09:57:53.070Z,6988.00
2022-08-16T09:59:05.869Z,6988.00
2022-08-16T09:59:56.387Z,7016.00
2022-08-16T10:00:50.643Z,7108.00
2022-08-16T10:01:49.904Z,7100.00
2022-08-16T10:02:49.678Z,7120.00
2022-08-16T10:04:02.385Z,7196.00
2022-08-16T10:04:54.632Z,7344.00
2022-08-16T10:05:49.591Z,7532.00
2022-08-16T10:06:49.588Z,7700.00
2022-08-16T10:07:49.890Z,7868.00
2022-08-16T10:09:04.732Z,7892.00
2022-08-16T10:09:55.150Z,8096.00
2022-08-16T10:10:50.550Z,8228.00
2022-08-16T10:11:50.451Z,8484.00
2022-08-16T10:12:55.570Z,8772.00
2022-08-16T10:13:50.519Z,9040.00
2022-08-16T10:14:49.490Z,9396.00
2022-08-16T10:15:55.427Z,9720.00
2022-08-16T10:16:50.470Z,10192.00
2022-08-16T10:17:59.967Z,10088.00
2022-08-16T10:19:00.795Z,10196.00
2022-08-16T10:19:50.444Z,10616.00
2022-08-16T10:20:49.424Z,11100.00
2022-08-16T10:21:56.618Z,11508.00
2022-08-16T10:22:54.206Z,11256.00
2022-08-16T10:23:50.394Z,12276.00
2022-08-16T10:24:56.051Z,13260.00
2022-08-16T10:27:21.692Z,13820.00
2022-08-16T10:28:28.131Z,12732.00
2022-08-16T10:29:01.556Z,13896.00
2022-08-16T10:30:06.940Z,14680.00
2022-08-16T10:31:03.479Z,14588.00
2022-08-16T10:32:00.542Z,15700.00
2022-08-16T10:33:00.536Z,16992.00
2022-08-16T10:34:00.501Z,16992.00
2022-08-16T10:35:00.483Z,17024.00
2022-08-16T10:36:03.659Z,21248.00
2022-08-16T10:37:00.473Z,29696.00
2022-08-16T10:38:00.476Z,38112.00
2022-08-16T10:39:00.444Z,32192.00
2022-08-16T10:40:00.487Z,46240.00
2022-08-16T10:41:00.437Z,56512.00
2022-08-16T10:42:00.407Z,58528.00
2022-08-16T10:43:00.544Z,43968.00
2022-08-16T10:44:00.422Z,75232.00
2022-08-16T10:45:00.387Z,77792.00
2022-08-16T10:46:01.356Z,79008.00
2022-08-16T10:47:00.366Z,75680.00
2022-08-16T10:48:00.714Z,69216.00
2022-08-16T10:49:00.882Z,65376.00
2022-08-16T10:50:00.361Z,63904.00
2022-08-16T10:51:00.325Z,64128.00
2022-08-16T10:52:02.521Z,64576.00
2022-08-16T10:53:05.766Z,67840.00
2022-08-16T10:54:01.283Z,66848.00
2022-08-16T10:55:43.747Z,10692.00
2022-08-16T10:56:01.596Z,59200.00
2022-08-16T10:57:00.499Z,55168.00
2022-08-16T10:58:00.247Z,64192.00
2022-08-16T11:00:01.463Z,65888.00
2022-08-16T11:01:00.553Z,65280.00
2022-08-16T11:03:01.596Z,10980.00
2022-08-16T11:04:01.283Z,63872.00
2022-08-16T11:05:09.057Z,63424.00
2022-08-16T11:06:03.246Z,65088.00
2022-08-16T11:07:08.193Z,65088.00
2022-08-16T11:08:05.329Z,66496.00
2022-08-16T11:10:21.264Z,64640.00
2022-08-16T11:11:05.284Z,44768.00
2022-08-16T11:12:13.892Z,19328.00
2022-08-16T11:14:05.950Z,64896.00
2022-08-16T11:15:17.230Z,59872.00
2022-08-16T11:16:01.281Z,68672.00
2022-08-16T11:17:02.015Z,68480.00
2022-08-16T11:19:03.501Z,66560.00
2022-08-16T11:20:40.907Z,65056.00
2022-08-16T11:21:01.032Z,66016.00
2022-08-16T11:22:39.444Z,65920.00
2022-08-16T11:23:01.001Z,9400.00
2022-08-16T11:24:00.198Z,10016.00
2022-08-16T11:26:06.052Z,18016.00
2022-08-16T11:26:10.408Z,10608.00
2022-08-16T11:28:00.943Z,12196.00
2022-08-16T11:29:15.405Z,13352.00
2022-08-16T11:30:01.040Z,65888.00
2022-08-16T11:30:59.913Z,63232.00
2022-08-16T11:31:59.917Z,69312.00
2022-08-16T11:32:59.886Z,72000.00
2022-08-16T11:33:59.878Z,71936.00
2022-08-16T11:35:13.458Z,70624.00
2022-08-16T11:37:01.052Z,61408.00
2022-08-16T11:38:47.456Z,13952.00
2022-08-16T11:39:01.204Z,14264.00
2022-08-16T11:40:00.082Z,39520.00
2022-08-16T11:40:59.811Z,60800.00
2022-08-16T11:41:59.801Z,68032.00
2022-08-16T11:42:59.791Z,66336.00
2022-08-16T11:43:59.780Z,68992.00
2022-08-16T11:44:59.771Z,68576.00
2022-08-16T11:46:01.360Z,70080.00
2022-08-16T11:47:00.751Z,69696.00
2022-08-16T11:47:59.743Z,69920.00
2022-08-16T11:48:59.741Z,12416.00
2022-08-16T11:49:59.714Z,13796.00
2022-08-16T11:50:59.741Z,22304.00
2022-08-16T11:51:59.696Z,12024.00
2022-08-16T11:52:59.699Z,12776.00
2022-08-16T11:53:59.679Z,16988.00
2022-08-16T11:55:00.142Z,69312.00
2022-08-16T11:55:59.754Z,69344.00
2022-08-16T11:56:59.673Z,70176.00
2022-08-16T11:57:59.636Z,71872.00
2022-08-16T11:58:59.632Z,70688.00
2022-08-16T11:59:59.639Z,68768.00
2022-08-16T12:00:59.616Z,70720.00
2022-08-16T12:02:31.385Z,70624.00
2022-08-16T12:03:00.588Z,69024.00
2022-08-16T12:04:00.041Z,72000.00
2022-08-16T12:04:59.568Z,74368.00
2022-08-16T12:05:59.561Z,74336.00
2022-08-16T12:06:59.590Z,71680.00
2022-08-16T12:07:59.541Z,70240.00
2022-08-16T12:09:02.189Z,54368.00
2022-08-16T12:09:59.519Z,20640.00
2022-08-16T12:10:59.596Z,61920.00
2022-08-16T12:12:03.116Z,74240.00
2022-08-16T12:13:02.738Z,45152.00
2022-08-16T12:13:59.491Z,63680.00
2022-08-16T12:15:00.215Z,66624.00
2022-08-16T12:15:59.470Z,68480.00
2022-08-16T12:16:59.462Z,67520.00
2022-08-16T12:17:59.473Z,64256.00
2022-08-16T12:18:59.446Z,62656.00
2022-08-16T12:19:59.459Z,48416.00
2022-08-16T12:20:59.996Z,62208.00
2022-08-16T12:21:59.659Z,69312.00
2022-08-16T12:22:59.415Z,54464.00
2022-08-16T12:23:59.416Z,63136.00
2022-08-16T12:24:59.396Z,35200.00
2022-08-16T12:25:59.407Z,11452.00
2022-08-16T12:26:59.893Z,9676.00
2022-08-16T12:27:59.363Z,9316.00
2022-08-16T12:28:59.358Z,9864.00
2022-08-16T12:29:59.338Z,9556.00
2022-08-16T12:30:59.329Z,9672.00
2022-08-16T12:32:26.769Z,10732.00
2022-08-16T12:33:00.317Z,12224.00